createdAt,value
2023-04-29T00:00:38.881Z,3.00
2023-04-29T00:05:43.868Z,4.25
2023-04-29T00:10:48.649Z,5.00
2023-04-29T00:15:53.323Z,3.25
2023-04-29T00:20:58.215Z,2.00
2023-04-29T00:26:03.479Z,3.50
2023-04-29T00:31:08.389Z,3.75
2023-04-29T00:36:13.354Z,3.00
2023-04-29T00:41:22.139Z,2.75
2023-04-29T00:46:27.352Z,2.75
2023-04-29T00:51:32.324Z,5.50
2023-04-29T00:56:42.866Z,5.00
2023-04-29T01:01:49.660Z,4.25
2023-04-29T01:07:17.069Z,3.25
2023-04-29T01:12:28.191Z,3.00
2023-04-29T01:17:37.483Z,4.50
2023-04-29T01:22:43.078Z,6.00
2023-04-29T01:28:09.034Z,5.50
2023-04-29T01:33:23.710Z,6.00
2023-04-29T01:38:43.478Z,7.75
2023-04-29T01:43:51.847Z,7.00
2023-04-29T01:49:01.257Z,7.50
2023-04-29T01:54:06.840Z,7.25
2023-04-29T01:59:12.105Z,5.25
2023-04-29T02:04:49.705Z,5.00
2023-04-29T02:10:02.267Z,6.50
2023-04-29T02:15:12.455Z,7.00
2023-04-29T02:20:19.277Z,8.25
2023-04-29T02:25:24.004Z,4.75
2023-04-29T02:30:28.718Z,6.00
2023-04-29T02:35:34.793Z,5.75
2023-04-29T02:40:48.922Z,5.50
2023-04-29T02:46:01.609Z,3.75
2023-04-29T02:51:07.330Z,7.75
2023-04-29T02:56:13.104Z,4.25
2023-04-29T03:01:20.429Z,6.50
2023-04-29T03:06:27.143Z,4.75
2023-04-29T03:11:35.884Z,6.00
2023-04-29T03:16:42.511Z,7.00
2023-04-29T03:21:47.692Z,5.25
2023-04-29T03:26:52.552Z,4.00
2023-04-29T03:32:03.020Z,5.50
2023-04-29T03:37:09.020Z,4.00
2023-04-29T03:42:20.537Z,8.00
2023-04-29T03:47:25.981Z,4.50
2023-04-29T03:52:32.311Z,4.00
2023-04-29T03:57:47.380Z,5.75
2023-04-29T04:02:54.993Z,4.75
2023-04-29T04:08:01.975Z,5.50
2023-04-29T04:13:09.498Z,5.00
2023-04-29T04:18:14.839Z,4.50
2023-04-29T04:23:20.235Z,4.00
2023-04-29T04:28:25.230Z,5.00
2023-04-29T04:33:40.858Z,4.75
2023-04-29T04:38:46.450Z,8.75
2023-04-29T04:43:51.548Z,4.75
2023-04-29T04:49:09.228Z,6.25
2023-04-29T04:54:19.852Z,6.00
2023-04-29T04:59:29.122Z,4.50
2023-04-29T05:04:34.907Z,5.75
2023-04-29T05:09:39.967Z,3.00
2023-04-29T05:14:45.044Z,4.50
2023-04-29T05:19:51.265Z,6.00
2023-04-29T05:25:04.984Z,5.00
2023-04-29T05:30:12.778Z,5.50
2023-04-29T05:35:17.729Z,3.75
2023-04-29T05:40:24.552Z,3.25
2023-04-29T05:45:35.667Z,3.25
2023-04-29T05:50:40.743Z,3.00
2023-04-29T05:55:47.308Z,6.00
2023-04-29T06:00:53.148Z,4.25
2023-04-29T06:06:02.735Z,3.00
2023-04-29T06:11:17.822Z,3.50
2023-04-29T06:16:22.983Z,5.75
2023-04-29T06:21:29.455Z,4.50
2023-04-29T06:26:34.240Z,2.25
2023-04-29T06:31:40.173Z,4.00
2023-04-29T06:36:46.160Z,4.00
2023-04-29T06:42:11.861Z,2.25
2023-04-29T06:47:23.736Z,3.25
2023-04-29T06:52:46.902Z,2.00
2023-04-29T06:57:52.931Z,4.25
2023-04-29T07:02:58.000Z,2.75
2023-04-29T07:08:03.394Z,4.00
2023-04-29T07:13:08.443Z,3.50
2023-04-29T07:18:13.521Z,3.00
2023-04-29T07:23:19.281Z,2.00
2023-04-29T07:28:24.555Z,3.25
2023-04-29T07:33:30.270Z,4.50
2023-04-29T07:38:36.161Z,3.75
2023-04-29T07:43:42.376Z,2.25
2023-04-29T07:48:47.999Z,3.00
2023-04-29T07:53:53.354Z,3.00
2023-04-29T07:58:58.468Z,2.00
2023-04-29T08:04:03.949Z,3.00
2023-04-29T08:09:13.450Z,2.00
2023-04-29T08:14:19.673Z,3.00
2023-04-29T08:19:24.879Z,3.00
2023-04-29T08:24:31.179Z,3.25
2023-04-29T08:29:36.314Z,2.25
2023-04-29T08:34:42.899Z,2.00
2023-04-29T08:39:50.994Z,2.75
2023-04-29T08:44:56.042Z,2.50
2023-04-29T08:50:05.896Z,2.75
2023-04-29T08:55:11.305Z,3.75
2023-04-29T09:00:16.596Z,2.00
2023-04-29T09:05:21.937Z,2.75
2023-04-29T09:10:28.355Z,3.25
2023-04-29T09:15:38.023Z,2.25
2023-04-29T09:20:42.968Z,2.50
2023-04-29T09:25:57.869Z,1.00
2023-04-29T09:31:09.678Z,2.50
2023-04-29T09:36:14.902Z,5.00
2023-04-29T09:41:21.284Z,4.00
2023-04-29T09:46:26.088Z,3.50
2023-04-29T09:51:33.679Z,2.00
2023-04-29T09:56:53.286Z,3.00
2023-04-29T10:02:00.300Z,2.00
2023-04-29T10:07:06.379Z,4.00
2023-04-29T10:12:11.308Z,3.50
2023-04-29T10:17:20.163Z,2.50
2023-04-29T10:22:29.193Z,2.75
2023-04-29T10:27:35.763Z,2.75
2023-04-29T10:32:51.062Z,7.25
2023-04-29T10:37:58.691Z,2.75
2023-04-29T10:43:03.608Z,3.00
2023-04-29T10:48:13.361Z,5.50
2023-04-29T10:53:20.726Z,3.00
2023-04-29T10:58:54.701Z,2.50
2023-04-29T11:04:04.914Z,3.00
2023-04-29T11:09:12.333Z,3.25
2023-04-29T11:14:17.936Z,2.00
2023-04-29T11:19:25.950Z,2.25
2023-04-29T11:24:30.811Z,3.50
2023-04-29T11:29:35.692Z,3.00
2023-04-29T11:34:40.912Z,3.75
2023-04-29T11:39:45.724Z,3.50
2023-04-29T11:44:54.858Z,2.50
2023-04-29T11:50:06.904Z,3.75
2023-04-29T11:55:14.110Z,3.00
2023-04-29T12:00:19.098Z,2.00
2023-04-29T12:05:27.344Z,2.25
2023-04-29T12:10:32.419Z,4.00
2023-04-29T12:15:38.936Z,4.50
2023-04-29T12:20:45.927Z,4.75
2023-04-29T12:25:55.248Z,2.00
2023-04-29T12:31:01.157Z,5.00
2023-04-29T12:36:07.196Z,6.00
2023-04-29T12:41:12.199Z,3.75
2023-04-29T12:46:17.755Z,4.50
2023-04-29T12:51:22.916Z,7.50
2023-04-29T12:56:27.861Z,4.25
2023-04-29T13:01:32.461Z,4.00
2023-04-29T13:06:40.974Z,3.00
2023-04-29T13:11:45.723Z,2.75
2023-04-29T13:16:50.749Z,5.00
2023-04-29T13:21:55.625Z,3.25
2023-04-29T13:27:00.227Z,1.00
2023-04-29T13:32:05.989Z,1.75
2023-04-29T13:37:11.123Z,2.75
2023-04-29T13:42:16.067Z,3.00
2023-04-29T13:47:25.774Z,2.00
2023-04-29T13:53:10.031Z,3.00
2023-04-29T14:03:03.711Z,1.00
2023-04-29T14:08:08.294Z,1.00
2023-04-29T14:13:12.704Z,1.50
2023-04-29T14:18:17.502Z,2.00
2023-04-29T14:23:22.934Z,1.00
2023-04-29T14:28:27.507Z,1.50
2023-04-29T14:33:32.130Z,4.75
2023-04-29T14:38:36.838Z,2.25
2023-04-29T14:43:43.549Z,2.00
2023-04-29T14:48:48.425Z,1.25
2023-04-29T14:53:54.913Z,1.50
2023-04-29T14:58:59.624Z,0.75
2023-04-29T15:04:05.735Z,1.25
2023-04-29T15:09:10.403Z,1.25
2023-04-29T15:14:14.942Z,1.25
2023-04-29T15:19:19.784Z,2.50
2023-04-29T15:24:24.124Z,0.00
2023-04-29T15:29:28.919Z,1.00
2023-04-29T15:34:33.583Z,1.00
2023-04-29T15:39:38.083Z,2.00
2023-04-29T15:44:42.731Z,2.00
2023-04-29T15:49:47.167Z,1.00
2023-04-29T15:54:51.724Z,1.00
2023-04-29T15:59:56.960Z,2.00
2023-04-29T16:05:01.508Z,0.75
2023-04-29T16:10:06.454Z,0.25
2023-04-29T16:15:11.413Z,1.25
2023-04-29T16:20:16.568Z,0.50
2023-04-29T16:25:20.965Z,1.00
2023-04-29T16:30:25.533Z,0.50
2023-04-29T16:35:32.092Z,2.00
2023-04-29T16:40:37.094Z,1.75
2023-04-29T16:45:41.585Z,1.00
2023-04-29T16:50:46.454Z,1.00
2023-04-29T16:55:52.781Z,1.25
2023-04-29T17:00:58.053Z,0.00
2023-04-29T17:06:02.604Z,0.00
2023-04-29T17:11:07.260Z,0.00
2023-04-29T17:16:11.541Z,0.50
2023-04-29T17:21:17.124Z,1.00
2023-04-29T17:26:22.646Z,0.00
2023-04-29T17:31:32.305Z,0.25
2023-04-29T17:36:37.083Z,0.75
2023-04-29T17:41:41.919Z,0.25
2023-04-29T17:46:46.456Z,0.25
2023-04-29T17:51:51.081Z,0.25
2023-04-29T17:56:55.526Z,0.00
2023-04-29T18:02:00.500Z,0.25
2023-04-29T18:07:05.089Z,3.00
2023-04-29T18:12:09.571Z,0.25
2023-04-29T18:17:13.844Z,0.00
2023-04-29T18:22:18.421Z,1.00
2023-04-29T18:27:23.369Z,0.00
2023-04-29T18:32:27.722Z,0.00
2023-04-29T18:37:32.504Z,0.00
2023-04-29T18:42:36.727Z,1.00
2023-04-29T18:47:41.232Z,0.25
2023-04-29T18:52:45.684Z,1.00
2023-04-29T18:57:50.221Z,1.00
2023-04-29T19:02:54.565Z,1.00
2023-04-29T19:07:59.795Z,1.00
2023-04-29T19:13:04.322Z,0.00
2023-04-29T19:18:08.984Z,2.00
2023-04-29T19:23:13.224Z,1.00
2023-04-29T19:28:17.759Z,0.25
2023-04-29T19:33:22.088Z,1.00
2023-04-29T19:38:27.243Z,1.25
2023-04-29T19:43:31.584Z,0.25
2023-04-29T19:48:35.978Z,0.00
2023-04-29T19:53:40.460Z,1.00
2023-04-29T19:58:44.997Z,0.00
2023-04-29T20:03:49.634Z,0.75
2023-04-29T20:08:53.962Z,1.50
2023-04-29T20:13:58.159Z,1.00
2023-04-29T20:19:02.585Z,1.00
2023-04-29T20:24:07.477Z,0.25
2023-04-29T20:29:12.057Z,0.25
2023-04-29T20:34:16.472Z,0.75
2023-04-29T20:39:21.677Z,0.00
2023-04-29T20:44:26.843Z,0.25
2023-04-29T20:49:31.969Z,1.00
2023-04-29T20:54:36.935Z,1.00
2023-04-29T20:59:42.533Z,1.00
2023-04-29T21:04:48.425Z,0.00
2023-04-29T21:09:53.577Z,0.00
2023-04-29T21:14:58.761Z,1.00
2023-04-29T21:20:03.805Z,1.50
2023-04-29T21:25:10.050Z,1.00
2023-04-29T21:30:15.128Z,0.25
2023-04-29T21:35:20.233Z,1.00
2023-04-29T21:40:27.918Z,2.00
2023-04-29T21:45:33.044Z,0.00
2023-04-29T21:50:39.401Z,0.50
2023-04-29T21:55:44.450Z,0.25
2023-04-29T22:00:59.462Z,1.00
2023-04-29T22:06:04.635Z,0.75
2023-04-29T22:11:09.746Z,1.00
2023-04-29T22:16:15.042Z,1.00
2023-04-29T22:21:20.337Z,1.25
2023-04-29T22:26:26.971Z,1.75
2023-04-29T22:31:31.742Z,2.00
2023-04-29T22:36:37.821Z,1.00
2023-04-29T22:41:42.878Z,1.50
2023-04-29T22:46:47.750Z,1.25
2023-04-29T22:51:52.749Z,3.25
2023-04-29T22:56:57.895Z,2.00
2023-04-29T23:02:03.779Z,3.25
2023-04-29T23:07:08.621Z,1.00
2023-04-29T23:12:13.353Z,2.00
2023-04-29T23:17:18.367Z,1.25
2023-04-29T23:22:23.343Z,3.00
2023-04-29T23:27:28.294Z,3.00
2023-04-29T23:32:33.343Z,2.00
2023-04-29T23:37:38.404Z,2.00
2023-04-29T23:42:43.707Z,2.75
2023-04-29T23:47:48.740Z,1.50
2023-04-29T23:52:53.874Z,1.50
2023-04-29T23:57:59.111Z,4.00
